sensor_id;sensor_type;location;lat;lon;timestamp;pressure;altitude;pressure_sealevel;temperature;humidity
18988;BME280;5494;51.796;10.952;2024-02-23T00:01:28;95948.38;;;9.00;100.00
18988;BME280;5494;51.796;10.952;2024-02-23T00:03:56;95951.25;;;8.97;100.00
18988;BME280;5494;51.796;10.952;2024-02-23T00:06:24;95996.97;;;8.88;100.00
18988;BME280;5494;51.796;10.952;2024-02-23T00:08:56;96001.44;;;8.86;100.00
18988;BME280;5494;51.796;10.952;2024-02-23T00:11:24;96007.63;;;8.76;100.00
18988;BME280;5494;51.796;10.952;2024-02-23T00:13:52;96023.84;;;8.78;99.35
18988;BME280;5494;51.796;10.952;2024-02-23T00:16:20;96010.66;;;8.71;100.00
18988;BME280;5494;51.796;10.952;2024-02-23T00:18:48;96010.78;;;8.69;98.57
18988;BME280;5494;51.796;10.952;2024-02-23T00:21:16;96010.78;;;8.69;96.60
18988;BME280;5494;51.796;10.952;2024-02-23T00:23:44;96025.38;;;8.71;95.25
18988;BME280;5494;51.796;10.952;2024-02-23T00:26:13;96023.03;;;8.67;94.57
18988;BME280;5494;51.796;10.952;2024-02-23T00:28:41;96026.06;;;8.63;96.67
18988;BME280;5494;51.796;10.952;2024-02-23T00:31:10;96048.66;;;8.61;96.29
18988;BME280;5494;51.796;10.952;2024-02-23T00:33:38;96040.78;;;8.62;98.24
18988;BME280;5494;51.796;10.952;2024-02-23T00:36:09;96054.28;;;8.56;99.29
18988;BME280;5494;51.796;10.952;2024-02-23T00:38:37;96058.63;;;8.46;100.00
18988;BME280;5494;51.796;10.952;2024-02-23T00:41:05;96057.38;;;8.60;100.00
18988;BME280;5494;51.796;10.952;2024-02-23T00:43:38;96060.78;;;8.51;100.00
18988;BME280;5494;51.796;10.952;2024-02-23T00:46:07;96058.63;;;8.46;100.00
18988;BME280;5494;51.796;10.952;2024-02-23T00:48:35;96074.56;;;8.42;100.00
18988;BME280;5494;51.796;10.952;2024-02-23T00:51:04;96083.97;;;8.43;100.00
18988;BME280;5494;51.796;10.952;2024-02-23T00:53:32;96095.00;;;8.45;100.00
18988;BME280;5494;51.796;10.952;2024-02-23T00:56:00;96110.13;;;8.40;100.00
18988;BME280;5494;51.796;10.952;2024-02-23T00:58:28;96120.75;;;8.37;100.00
18988;BME280;5494;51.796;10.952;2024-02-23T01:00:58;96130.66;;;8.32;100.00
18988;BME280;5494;51.796;10.952;2024-02-23T01:03:26;96126.81;;;8.26;100.00
18988;BME280;5494;51.796;10.952;2024-02-23T01:05:54;96132.94;;;8.25;99.17
18988;BME280;5494;51.796;10.952;2024-02-23T01:08:25;96156.94;;;8.27;97.96
18988;BME280;5494;51.796;10.952;2024-02-23T01:10:53;96150.44;;;8.33;96.50
18988;BME280;5494;51.796;10.952;2024-02-23T01:13:21;96163.13;;;8.36;95.26
18988;BME280;5494;51.796;10.952;2024-02-23T01:15:49;96157.13;;;8.35;94.49
18988;BME280;5494;51.796;10.952;2024-02-23T01:18:19;96163.94;;;8.36;92.99
18988;BME280;5494;51.796;10.952;2024-02-23T01:20:47;96162.28;;;8.45;91.29
18988;BME280;5494;51.796;10.952;2024-02-23T01:23:15;96162.84;;;8.48;87.72
18988;BME280;5494;51.796;10.952;2024-02-23T01:25:43;96168.97;;;8.47;87.50
18988;BME280;5494;51.796;10.952;2024-02-23T01:28:11;96173.22;;;8.48;86.38
18988;BME280;5494;51.796;10.952;2024-02-23T01:30:39;96184.25;;;8.50;86.99
18988;BME280;5494;51.796;10.952;2024-02-23T01:33:07;96195.72;;;8.57;85.87
18988;BME280;5494;51.796;10.952;2024-02-23T01:35:36;96199.66;;;8.61;85.43
18988;BME280;5494;51.796;10.952;2024-02-23T01:38:04;96200.47;;;8.72;84.53
18988;BME280;5494;51.796;10.952;2024-02-23T01:40:33;96210.84;;;8.62;85.01
18988;BME280;5494;51.796;10.952;2024-02-23T01:43:03;96199.38;;;8.64;84.83
18988;BME280;5494;51.796;10.952;2024-02-23T01:45:32;96206.72;;;8.59;84.33
18988;BME280;5494;51.796;10.952;2024-02-23T01:48:01;96205.53;;;8.63;85.11
18988;BME280;5494;51.796;10.952;2024-02-23T01:50:30;96231.66;;;8.51;86.05
18988;BME280;5494;51.796;10.952;2024-02-23T01:53:02;96263.28;;;8.54;87.70
18988;BME280;5494;51.796;10.952;2024-02-23T01:55:31;96231.09;;;8.47;93.57
18988;BME280;5494;51.796;10.952;2024-02-23T01:58:04;96254.91;;;8.32;100.00
18988;BME280;5494;51.796;10.952;2024-02-23T02:00:35;96255.91;;;8.19;100.00
18988;BME280;5494;51.796;10.952;2024-02-23T02:03:04;96272.81;;;7.93;100.00
18988;BME280;5494;51.796;10.952;2024-02-23T02:05:37;96291.28;;;7.88;100.00
18988;BME280;5494;51.796;10.952;2024-02-23T02:08:07;96284.75;;;7.84;99.01
18988;BME280;5494;51.796;10.952;2024-02-23T02:10:35;96293.75;;;7.90;94.69
18988;BME280;5494;51.796;10.952;2024-02-23T02:13:04;96309.84;;;7.94;90.13
18988;BME280;5494;51.796;10.952;2024-02-23T02:15:32;96308.59;;;7.88;86.88
18988;BME280;5494;51.796;10.952;2024-02-23T02:18:00;96315.34;;;7.79;86.19
18988;BME280;5494;51.796;10.952;2024-02-23T02:20:32;96326.19;;;7.73;83.37
18988;BME280;5494;51.796;10.952;2024-02-23T02:23:01;96313.06;;;7.65;84.08
18988;BME280;5494;51.796;10.952;2024-02-23T02:25:31;96341.63;;;7.64;83.03
18988;BME280;5494;51.796;10.952;2024-02-23T02:27:59;96343.44;;;7.52;82.82
18988;BME280;5494;51.796;10.952;2024-02-23T02:30:26;96368.81;;;7.47;82.10
18988;BME280;5494;51.796;10.952;2024-02-23T02:32:54;96362.47;;;7.51;80.94
18988;BME280;5494;51.796;10.952;2024-02-23T02:35:22;96370.03;;;7.43;79.91
18988;BME280;5494;51.796;10.952;2024-02-23T02:37:50;96364.16;;;7.41;79.91
18988;BME280;5494;51.796;10.952;2024-02-23T02:40:18;96381.28;;;7.42;77.75
18988;BME280;5494;51.796;10.952;2024-02-23T02:42:48;96384.13;;;7.39;78.00
18988;BME280;5494;51.796;10.952;2024-02-23T02:45:16;96394.59;;;7.37;77.91
18988;BME280;5494;51.796;10.952;2024-02-23T02:47:46;96404.94;;;7.26;79.77
18988;BME280;5494;51.796;10.952;2024-02-23T02:50:15;96383.22;;;7.29;78.71
18988;BME280;5494;51.796;10.952;2024-02-23T02:52:43;96381.94;;;7.23;80.67
18988;BME280;5494;51.796;10.952;2024-02-23T02:55:11;96391.13;;;7.16;80.52
18988;BME280;5494;51.796;10.952;2024-02-23T02:57:39;96386.78;;;7.17;82.46
18988;BME280;5494;51.796;10.952;2024-02-23T03:00:12;96408.50;;;7.14;81.75
18988;BME280;5494;51.796;10.952;2024-02-23T03:02:40;96389.34;;;7.17;82.56
18988;BME280;5494;51.796;10.952;2024-02-23T03:05:08;96430.91;;;7.13;82.92
18988;BME280;5494;51.796;10.952;2024-02-23T03:07:36;96425.75;;;7.13;83.53
18988;BME280;5494;51.796;10.952;2024-02-23T03:10:06;96430.34;;;7.10;85.29
18988;BME280;5494;51.796;10.952;2024-02-23T03:12:34;96446.91;;;7.07;86.90
18988;BME280;5494;51.796;10.952;2024-02-23T03:15:03;96455.34;;;6.98;91.34
18988;BME280;5494;51.796;10.952;2024-02-23T03:17:33;96449.16;;;6.90;93.79
18988;BME280;5494;51.796;10.952;2024-02-23T03:20:02;96451.59;;;6.80;97.11
18988;BME280;5494;51.796;10.952;2024-02-23T03:22:32;96462.41;;;6.74;95.98
18988;BME280;5494;51.796;10.952;2024-02-23T03:25:00;96467.66;;;6.61;95.20
18988;BME280;5494;51.796;10.952;2024-02-23T03:27:35;96476.69;;;6.56;95.43
18988;BME280;5494;51.796;10.952;2024-02-23T03:30:06;96481.97;;;6.54;96.82
18988;BME280;5494;51.796;10.952;2024-02-23T03:32:36;96490.53;;;6.55;95.92
18988;BME280;5494;51.796;10.952;2024-02-23T03:35:07;96492.63;;;6.50;99.33
18988;BME280;5494;51.796;10.952;2024-02-23T03:37:36;96514.31;;;6.47;100.00
18988;BME280;5494;51.796;10.952;2024-02-23T03:40:07;96504.38;;;6.54;100.00
18988;BME280;5494;51.796;10.952;2024-02-23T03:42:37;96511.03;;;6.45;100.00
18988;BME280;5494;51.796;10.952;2024-02-23T03:45:06;96515.81;;;6.39;100.00
18988;BME280;5494;51.796;10.952;2024-02-23T03:47:34;96521.31;;;6.34;100.00
18988;BME280;5494;51.796;10.952;2024-02-23T03:50:05;96524.44;;;6.15;100.00
18988;BME280;5494;51.796;10.952;2024-02-23T03:52:33;96524.91;;;5.97;100.00
18988;BME280;5494;51.796;10.952;2024-02-23T03:55:01;96522.34;;;5.97;100.00
18988;BME280;5494;51.796;10.952;2024-02-23T03:57:31;96533.19;;;5.89;100.00
18988;BME280;5494;51.796;10.952;2024-02-23T04:00:00;96533.00;;;5.79;100.00
18988;BME280;5494;51.796;10.952;2024-02-23T04:02:38;96536.63;;;5.77;100.00
18988;BME280;5494;51.796;10.952;2024-02-23T04:05:09;96533.44;;;5.73;100.00
18988;BME280;5494;51.796;10.952;2024-02-23T04:07:37;96531.91;;;5.71;100.00
18988;BME280;5494;51.796;10.952;2024-02-23T04:10:07;96533.97;;;5.66;100.00
18988;BME280;5494;51.796;10.952;2024-02-23T04:12:35;96539.56;;;5.60;100.00
18988;BME280;5494;51.796;10.952;2024-02-23T04:15:04;96522.16;;;5.50;100.00
18988;BME280;5494;51.796;10.952;2024-02-23T04:17:32;96532.50;;;5.38;100.00
18988;BME280;5494;51.796;10.952;2024-02-23T04:20:06;96531.03;;;5.46;100.00
18988;BME280;5494;51.796;10.952;2024-02-23T04:22:36;96537.66;;;5.38;100.00
18988;BME280;5494;51.796;10.952;2024-02-23T04:25:04;96550.41;;;5.39;100.00
18988;BME280;5494;51.796;10.952;2024-02-23T04:27:33;96544.84;;;5.33;100.00
18988;BME280;5494;51.796;10.952;2024-02-23T04:30:01;96549.41;;;5.29;100.00
18988;BME280;5494;51.796;10.952;2024-02-23T04:32:29;96550.25;;;5.30;100.00
18988;BME280;5494;51.796;10.952;2024-02-23T04:34:57;96554.25;;;5.21;100.00
18988;BME280;5494;51.796;10.952;2024-02-23T04:37:25;96568.28;;;5.17;100.00
18988;BME280;5494;51.796;10.952;2024-02-23T04:39:54;96574.78;;;5.10;100.00
18988;BME280;5494;51.796;10.952;2024-02-23T04:42:22;96569.81;;;5.07;100.00
18988;BME280;5494;51.796;10.952;2024-02-23T04:44:50;96581.56;;;5.11;100.00
18988;BME280;5494;51.796;10.952;2024-02-23T04:47:21;96574.97;;;5.07;100.00
18988;BME280;5494;51.796;10.952;2024-02-23T04:49:49;96577.44;;;5.08;100.00
18988;BME280;5494;51.796;10.952;2024-02-23T04:52:17;96594.56;;;5.09;100.00
18988;BME280;5494;51.796;10.952;2024-02-23T04:54:45;96590.22;;;5.10;100.00
18988;BME280;5494;51.796;10.952;2024-02-23T04:57:14;96600.31;;;5.13;100.00
18988;BME280;5494;51.796;10.952;2024-02-23T04:59:42;96598.66;;;5.12;100.00
18988;BME280;5494;51.796;10.952;2024-02-23T05:02:10;96606.59;;;5.09;100.00
18988;BME280;5494;51.796;10.952;2024-02-23T05:04:38;96587.97;;;5.18;100.00
18988;BME280;5494;51.796;10.952;2024-02-23T05:07:06;96611.22;;;5.17;100.00
18988;BME280;5494;51.796;10.952;2024-02-23T05:09:34;96614.72;;;5.15;100.00
18988;BME280;5494;51.796;10.952;2024-02-23T05:12:03;96622.97;;;5.21;100.00
18988;BME280;5494;51.796;10.952;2024-02-23T05:14:33;96633.06;;;5.24;100.00
18988;BME280;5494;51.796;10.952;2024-02-23T05:17:01;96637.41;;;5.23;100.00
18988;BME280;5494;51.796;10.952;2024-02-23T05:19:30;96632.34;;;5.22;100.00
18988;BME280;5494;51.796;10.952;2024-02-23T05:21:58;96638.00;;;5.27;100.00
18988;BME280;5494;51.796;10.952;2024-02-23T05:24:26;96620.28;;;5.22;100.00
18988;BME280;5494;51.796;10.952;2024-02-23T05:26:54;96637.81;;;5.17;100.00
18988;BME280;5494;51.796;10.952;2024-02-23T05:29:24;96636.16;;;5.16;100.00
18988;BME280;5494;51.796;10.952;2024-02-23T05:31:54;96652.44;;;5.17;100.00
18988;BME280;5494;51.796;10.952;2024-02-23T05:34:23;96638.09;;;5.12;100.00
18988;BME280;5494;51.796;10.952;2024-02-23T05:36:51;96646.56;;;5.14;100.00
18988;BME280;5494;51.796;10.952;2024-02-23T05:39:19;96654.28;;;5.14;100.00
18988;BME280;5494;51.796;10.952;2024-02-23T05:41:47;96659.75;;;5.10;100.00
18988;BME280;5494;51.796;10.952;2024-02-23T05:44:15;96664.78;;;5.11;100.00
18988;BME280;5494;51.796;10.952;2024-02-23T05:46:43;96664.97;;;5.08;100.00
18988;BME280;5494;51.796;10.952;2024-02-23T05:49:13;96660.66;;;5.09;100.00
18988;BME280;5494;51.796;10.952;2024-02-23T05:51:41;96666.22;;;5.15;100.00
18988;BME280;5494;51.796;10.952;2024-02-23T05:54:10;96657.78;;;5.13;100.00
18988;BME280;5494;51.796;10.952;2024-02-23T05:56:38;96669.31;;;5.08;100.00
18988;BME280;5494;51.796;10.952;2024-02-23T05:59:06;96659.66;;;5.11;99.54
18988;BME280;5494;51.796;10.952;2024-02-23T06:01:34;96665.50;;;5.13;97.86
18988;BME280;5494;51.796;10.952;2024-02-23T06:04:02;96661.19;;;5.14;98.05
18988;BME280;5494;51.796;10.952;2024-02-23T06:06:31;96676.34;;;5.19;98.47
18988;BME280;5494;51.796;10.952;2024-02-23T06:09:00;96679.00;;;5.17;99.38
18988;BME280;5494;51.796;10.952;2024-02-23T06:11:29;96682.91;;;5.10;99.61
18988;BME280;5494;51.796;10.952;2024-02-23T06:13:57;96698.28;;;5.11;99.21
18988;BME280;5494;51.796;10.952;2024-02-23T06:16:25;96676.13;;;5.22;98.12
18988;BME280;5494;51.796;10.952;2024-02-23T06:18:53;96685.00;;;5.18;97.32
18988;BME280;5494;51.796;10.952;2024-02-23T06:21:21;96680.34;;;5.23;97.67
18988;BME280;5494;51.796;10.952;2024-02-23T06:23:50;96679.84;;;5.18;98.01
18988;BME280;5494;51.796;10.952;2024-02-23T06:26:18;96702.28;;;5.15;99.12
18988;BME280;5494;51.796;10.952;2024-02-23T06:28:46;96706.78;;;5.12;100.00
18988;BME280;5494;51.796;10.952;2024-02-23T06:31:16;96711.03;;;5.13;100.00
18988;BME280;5494;51.796;10.952;2024-02-23T06:33:44;96711.75;;;5.15;100.00
18988;BME280;5494;51.796;10.952;2024-02-23T06:36:16;96709.50;;;5.23;100.00
18988;BME280;5494;51.796;10.952;2024-02-23T06:38:45;96699.81;;;5.14;100.00
18988;BME280;5494;51.796;10.952;2024-02-23T06:41:14;96723.81;;;5.14;100.00
18988;BME280;5494;51.796;10.952;2024-02-23T06:43:43;96707.41;;;5.03;100.00
18988;BME280;5494;51.796;10.952;2024-02-23T06:46:11;96714.84;;;5.20;99.90
18988;BME280;5494;51.796;10.952;2024-02-23T06:48:39;96725.16;;;5.33;98.70
18988;BME280;5494;51.796;10.952;2024-02-23T06:51:07;96728.22;;;5.12;99.64
18988;BME280;5494;51.796;10.952;2024-02-23T06:53:37;96728.13;;;5.14;99.88
18988;BME280;5494;51.796;10.952;2024-02-23T06:56:06;96719.56;;;5.13;100.00
18988;BME280;5494;51.796;10.952;2024-02-23T06:58:35;96732.25;;;5.17;98.14
18988;BME280;5494;51.796;10.952;2024-02-23T07:01:03;96740.94;;;5.28;97.07
18988;BME280;5494;51.796;10.952;2024-02-23T07:03:33;96745.66;;;5.34;98.31
18988;BME280;5494;51.796;10.952;2024-02-23T07:06:02;96750.97;;;5.71;95.98
18988;BME280;5494;51.796;10.952;2024-02-23T07:08:31;96771.19;;;5.89;90.66
18988;BME280;5494;51.796;10.952;2024-02-23T07:10:59;96770.19;;;5.92;91.15
18988;BME280;5494;51.796;10.952;2024-02-23T07:13:27;96781.22;;;6.07;90.64
18988;BME280;5494;51.796;10.952;2024-02-23T07:16:00;96770.28;;;6.52;89.07
18988;BME280;5494;51.796;10.952;2024-02-23T07:18:28;96774.78;;;6.98;84.60
18988;BME280;5494;51.796;10.952;2024-02-23T07:20:56;96772.16;;;7.45;80.27
18988;BME280;5494;51.796;10.952;2024-02-23T07:23:24;96784.16;;;7.23;78.71
18988;BME280;5494;51.796;10.952;2024-02-23T07:25:55;96796.91;;;7.37;80.36
18988;BME280;5494;51.796;10.952;2024-02-23T07:28:23;96801.81;;;7.29;78.88
18988;BME280;5494;51.796;10.952;2024-02-23T07:30:52;96802.81;;;7.15;77.65
18988;BME280;5494;51.796;10.952;2024-02-23T07:33:22;96815.22;;;7.10;79.98
18988;BME280;5494;51.796;10.952;2024-02-23T07:35:50;96808.19;;;6.88;81.40
18988;BME280;5494;51.796;10.952;2024-02-23T07:38:18;96817.69;;;6.88;82.56
18988;BME280;5494;51.796;10.952;2024-02-23T07:40:46;96818.97;;;7.30;80.66
18988;BME280;5494;51.796;10.952;2024-02-23T07:43:14;96821.38;;;7.79;81.58
18988;BME280;5494;51.796;10.952;2024-02-23T07:45:43;96821.38;;;8.36;74.98
18988;BME280;5494;51.796;10.952;2024-02-23T07:48:11;96824.75;;;8.81;72.55
18988;BME280;5494;51.796;10.952;2024-02-23T07:50:40;96828.50;;;8.88;70.66
18988;BME280;5494;51.796;10.952;2024-02-23T07:53:08;96839.16;;;9.17;70.07
18988;BME280;5494;51.796;10.952;2024-02-23T07:55:37;96841.88;;;9.47;67.47
18988;BME280;5494;51.796;10.952;2024-02-23T07:58:04;96831.22;;;9.82;64.26
18988;BME280;5494;51.796;10.952;2024-02-23T08:00:33;96828.53;;;9.84;64.20
18988;BME280;5494;51.796;10.952;2024-02-23T08:03:05;96831.69;;;10.08;62.32
18988;BME280;5494;51.796;10.952;2024-02-23T08:05:34;96836.94;;;10.39;61.61
18988;BME280;5494;51.796;10.952;2024-02-23T08:08:04;96833.69;;;10.77;58.51
18988;BME280;5494;51.796;10.952;2024-02-23T08:10:33;96842.13;;;10.39;58.97
18988;BME280;5494;51.796;10.952;2024-02-23T08:13:02;96831.38;;;10.83;57.33
18988;BME280;5494;51.796;10.952;2024-02-23T08:15:30;96833.78;;;11.05;56.22
18988;BME280;5494;51.796;10.952;2024-02-23T08:17:58;96839.13;;;10.64;56.13
18988;BME280;5494;51.796;10.952;2024-02-23T08:20:26;96835.47;;;10.76;56.88
18988;BME280;5494;51.796;10.952;2024-02-23T08:22:54;96832.00;;;10.66;56.48
18988;BME280;5494;51.796;10.952;2024-02-23T08:25:23;96827.13;;;10.82;56.22
18988;BME280;5494;51.796;10.952;2024-02-23T08:27:55;96831.63;;;11.49;55.05
18988;BME280;5494;51.796;10.952;2024-02-23T08:30:23;96826.84;;;12.02;52.85
18988;BME280;5494;51.796;10.952;2024-02-23T08:32:51;96839.72;;;11.84;52.99
18988;BME280;5494;51.796;10.952;2024-02-23T08:35:19;96832.31;;;12.09;51.80
18988;BME280;5494;51.796;10.952;2024-02-23T08:37:48;96837.22;;;12.58;50.71
18988;BME280;5494;51.796;10.952;2024-02-23T08:40:16;96841.13;;;12.82;49.18
18988;BME280;5494;51.796;10.952;2024-02-23T08:42:45;96837.41;;;12.01;50.07
18988;BME280;5494;51.796;10.952;2024-02-23T08:45:14;96839.53;;;12.34;50.87
18988;BME280;5494;51.796;10.952;2024-02-23T08:47:42;96839.13;;;12.29;51.42
18988;BME280;5494;51.796;10.952;2024-02-23T08:50:10;96818.31;;;12.19;52.21
18988;BME280;5494;51.796;10.952;2024-02-23T08:52:38;96826.59;;;12.42;51.04
18988;BME280;5494;51.796;10.952;2024-02-23T08:55:07;96835.88;;;12.64;49.85
18988;BME280;5494;51.796;10.952;2024-02-23T08:57:35;96831.75;;;12.05;51.69
18988;BME280;5494;51.796;10.952;2024-02-23T09:00:07;96826.53;;;11.19;54.11
18988;BME280;5494;51.796;10.952;2024-02-23T09:02:35;96835.34;;;10.78;56.35
18988;BME280;5494;51.796;10.952;2024-02-23T09:05:06;96835.78;;;10.22;57.36
18988;BME280;5494;51.796;10.952;2024-02-23T09:07:34;96821.00;;;9.81;58.85
18988;BME280;5494;51.796;10.952;2024-02-23T09:10:03;96823.31;;;9.84;59.57
18988;BME280;5494;51.796;10.952;2024-02-23T09:12:34;96829.66;;;9.70;59.64
18988;BME280;5494;51.796;10.952;2024-02-23T09:15:05;96818.44;;;9.49;59.93
18988;BME280;5494;51.796;10.952;2024-02-23T09:17:33;96826.59;;;9.44;60.34
18988;BME280;5494;51.796;10.952;2024-02-23T09:20:01;96811.53;;;9.38;60.13
18988;BME280;5494;51.796;10.952;2024-02-23T09:22:29;96805.03;;;9.01;60.13
18988;BME280;5494;51.796;10.952;2024-02-23T09:24:57;96814.19;;;8.62;61.27
18988;BME280;5494;51.796;10.952;2024-02-23T09:27:25;96837.94;;;8.78;63.18
18988;BME280;5494;51.796;10.952;2024-02-23T09:29:53;96829.94;;;8.81;62.24
18988;BME280;5494;51.796;10.952;2024-02-23T09:32:22;96820.19;;;8.62;62.00
18988;BME280;5494;51.796;10.952;2024-02-23T09:34:51;96818.75;;;8.81;61.54
18988;BME280;5494;51.796;10.952;2024-02-23T09:37:19;96811.22;;;9.21;60.71
18988;BME280;5494;51.796;10.952;2024-02-23T09:39:47;96821.75;;;9.19;60.09
18988;BME280;5494;51.796;10.952;2024-02-23T09:42:15;96830.34;;;9.72;58.08
18988;BME280;5494;51.796;10.952;2024-02-23T09:44:45;96839.97;;;9.61;57.63
18988;BME280;5494;51.796;10.952;2024-02-23T09:47:14;96840.38;;;9.45;58.95
18988;BME280;5494;51.796;10.952;2024-02-23T09:49:47;96841.44;;;9.74;58.08
18988;BME280;5494;51.796;10.952;2024-02-23T09:52:18;96841.59;;;9.62;58.55
18988;BME280;5494;51.796;10.952;2024-02-23T09:54:47;96837.75;;;9.77;56.92
18988;BME280;5494;51.796;10.952;2024-02-23T09:57:16;96851.00;;;9.74;58.09
18988;BME280;5494;51.796;10.952;2024-02-23T09:59:48;96861.78;;;10.32;58.02
18988;BME280;5494;51.796;10.952;2024-02-23T10:02:17;96847.88;;;10.63;55.27
18988;BME280;5494;51.796;10.952;2024-02-23T10:04:49;96852.34;;;10.91;55.16
18988;BME280;5494;51.796;10.952;2024-02-23T10:07:19;96855.31;;;11.36;53.72
18988;BME280;5494;51.796;10.952;2024-02-23T10:09:47;96860.34;;;11.19;50.54
18988;BME280;5494;51.796;10.952;2024-02-23T10:12:16;96862.78;;;11.20;50.21
18988;BME280;5494;51.796;10.952;2024-02-23T10:14:45;96868.34;;;11.65;51.51
18988;BME280;5494;51.796;10.952;2024-02-23T10:17:13;96872.16;;;11.32;50.73
18988;BME280;5494;51.796;10.952;2024-02-23T10:19:41;96866.84;;;11.53;50.56
18988;BME280;5494;51.796;10.952;2024-02-23T10:22:10;96871.59;;;11.48;50.57
18988;BME280;5494;51.796;10.952;2024-02-23T10:24:38;96870.75;;;11.28;50.30
18988;BME280;5494;51.796;10.952;2024-02-23T10:27:06;96872.59;;;11.47;51.40
18988;BME280;5494;51.796;10.952;2024-02-23T10:29:34;96889.84;;;11.67;49.89
18988;BME280;5494;51.796;10.952;2024-02-23T10:32:04;96883.72;;;12.07;48.03
18988;BME280;5494;51.796;10.952;2024-02-23T10:34:38;96890.22;;;11.34;49.20
18988;BME280;5494;51.796;10.952;2024-02-23T10:37:12;96914.84;;;11.30;49.16
18988;BME280;5494;51.796;10.952;2024-02-23T10:39:41;96898.47;;;11.58;49.17
18988;BME280;5494;51.796;10.952;2024-02-23T10:42:10;96903.41;;;11.71;48.31
18988;BME280;5494;51.796;10.952;2024-02-23T10:44:40;96914.41;;;12.22;46.56
18988;BME280;5494;51.796;10.952;2024-02-23T10:47:09;96922.75;;;11.19;49.03
18988;BME280;5494;51.796;10.952;2024-02-23T10:49:39;96947.53;;;10.62;52.16
18988;BME280;5494;51.796;10.952;2024-02-23T10:52:08;96928.38;;;10.01;52.82
18988;BME280;5494;51.796;10.952;2024-02-23T10:54:40;96944.22;;;10.18;57.92
18988;BME280;5494;51.796;10.952;2024-02-23T10:57:08;96955.53;;;10.49;51.88
18988;BME280;5494;51.796;10.952;2024-02-23T10:59:40;96963.81;;;10.22;54.34
18988;BME280;5494;51.796;10.952;2024-02-23T11:02:09;96970.13;;;10.92;51.98
18988;BME280;5494;51.796;10.952;2024-02-23T11:04:38;96970.94;;;11.72;50.23
18988;BME280;5494;51.796;10.952;2024-02-23T11:07:13;96973.34;;;12.33;48.91
18988;BME280;5494;51.796;10.952;2024-02-23T11:09:43;96966.19;;;12.54;47.58
18988;BME280;5494;51.796;10.952;2024-02-23T11:12:22;96967.75;;;12.94;45.61
18988;BME280;5494;51.796;10.952;2024-02-23T11:14:51;96956.66;;;13.29;45.03
18988;BME280;5494;51.796;10.952;2024-02-23T11:17:26;96967.75;;;13.40;44.11
18988;BME280;5494;51.796;10.952;2024-02-23T11:19:57;96970.47;;;13.12;46.10
18988;BME280;5494;51.796;10.952;2024-02-23T11:22:26;96984.56;;;13.56;44.32
18988;BME280;5494;51.796;10.952;2024-02-23T11:25:08;96984.38;;;12.93;44.60
18988;BME280;5494;51.796;10.952;2024-02-23T11:27:38;96978.53;;;12.62;45.70
18988;BME280;5494;51.796;10.952;2024-02-23T11:30:10;96989.28;;;12.30;45.31
18988;BME280;5494;51.796;10.952;2024-02-23T11:32:40;96979.22;;;11.77;46.06
18988;BME280;5494;51.796;10.952;2024-02-23T11:35:11;96992.09;;;11.39;48.22
18988;BME280;5494;51.796;10.952;2024-02-23T11:37:47;96973.09;;;11.58;48.90
18988;BME280;5494;51.796;10.952;2024-02-23T11:40:18;96974.38;;;11.73;48.32
18988;BME280;5494;51.796;10.952;2024-02-23T11:42:48;96968.56;;;12.00;48.68
18988;BME280;5494;51.796;10.952;2024-02-23T11:45:16;96961.69;;;11.99;48.40
18988;BME280;5494;51.796;10.952;2024-02-23T11:47:44;96967.28;;;11.84;48.24
18988;BME280;5494;51.796;10.952;2024-02-23T11:50:13;96973.47;;;11.83;48.04
18988;BME280;5494;51.796;10.952;2024-02-23T11:52:42;96967.63;;;11.51;49.35
18988;BME280;5494;51.796;10.952;2024-02-23T11:55:11;96977.69;;;11.35;50.36
18988;BME280;5494;51.796;10.952;2024-02-23T11:57:45;96962.78;;;11.37;50.81
18988;BME280;5494;51.796;10.952;2024-02-23T12:00:16;96968.66;;;11.79;49.83
18988;BME280;5494;51.796;10.952;2024-02-23T12:02:44;96987.66;;;10.99;48.32
18988;BME280;5494;51.796;10.952;2024-02-23T12:05:13;96975.28;;;10.82;50.40
18988;BME280;5494;51.796;10.952;2024-02-23T12:07:42;96976.31;;;10.70;51.62
18988;BME280;5494;51.796;10.952;2024-02-23T12:10:13;96980.59;;;10.81;52.84
18988;BME280;5494;51.796;10.952;2024-02-23T12:12:42;96975.88;;;10.95;52.96
18988;BME280;5494;51.796;10.952;2024-02-23T12:15:11;96976.75;;;11.36;52.35
18988;BME280;5494;51.796;10.952;2024-02-23T12:17:47;96977.91;;;11.62;51.29
18988;BME280;5494;51.796;10.952;2024-02-23T12:20:15;96974.88;;;11.48;49.53
18988;BME280;5494;51.796;10.952;2024-02-23T12:22:44;96980.88;;;11.38;50.92
18988;BME280;5494;51.796;10.952;2024-02-23T12:25:13;96985.41;;;11.56;49.75
18988;BME280;5494;51.796;10.952;2024-02-23T12:27:43;96989.22;;;11.42;49.22
18988;BME280;5494;51.796;10.952;2024-02-23T12:30:15;96979.63;;;11.33;50.38
18988;BME280;5494;51.796;10.952;2024-02-23T12:32:44;96983.06;;;10.82;52.17
18988;BME280;5494;51.796;10.952;2024-02-23T12:35:14;96984.94;;;10.71;52.94
18988;BME280;5494;51.796;10.952;2024-02-23T12:37:43;96982.63;;;10.98;52.26
18988;BME280;5494;51.796;10.952;2024-02-23T12:40:12;96981.75;;;10.46;53.06
18988;BME280;5494;51.796;10.952;2024-02-23T12:42:41;96990.69;;;10.53;53.39
18988;BME280;5494;51.796;10.952;2024-02-23T12:45:09;96978.13;;;10.38;54.08
18988;BME280;5494;51.796;10.952;2024-02-23T12:47:38;96995.09;;;10.21;54.67
18988;BME280;5494;51.796;10.952;2024-02-23T12:50:07;96991.19;;;10.26;54.89
18988;BME280;5494;51.796;10.952;2024-02-23T12:52:37;96997.75;;;10.31;55.25
18988;BME280;5494;51.796;10.952;2024-02-23T12:55:05;96990.47;;;10.24;55.76
18988;BME280;5494;51.796;10.952;2024-02-23T12:57:33;96983.78;;;10.22;55.41
18988;BME280;5494;51.796;10.952;2024-02-23T13:00:04;96982.16;;;10.31;56.16
18988;BME280;5494;51.796;10.952;2024-02-23T13:02:32;96988.28;;;10.41;56.13
18988;BME280;5494;51.796;10.952;2024-02-23T13:05:02;96988.34;;;10.50;55.75
18988;BME280;5494;51.796;10.952;2024-02-23T13:07:30;96993.16;;;10.55;54.88
18988;BME280;5494;51.796;10.952;2024-02-23T13:09:58;96987.22;;;10.43;53.85
18988;BME280;5494;51.796;10.952;2024-02-23T13:12:26;96986.84;;;10.16;54.17
18988;BME280;5494;51.796;10.952;2024-02-23T13:14:54;97000.81;;;9.93;54.75